Time;durP1;ratioP1;P1;durP2;ratioP2;P2;SDS_P1;SDS_P2;PMS_P1;PMS_P2;Temp;Humidity;BMP_temperature;BMP_pressure;BME280_temperature;BME280_humidity;BME280_pressure;Samples;Min_cycle;Max_cycle;Signal;HPM_P1;HPM_P2
2024/01/29 00:01:26;;;;;;;;;52.00;43.00;;;;;;;;5061907;28;45406;-84
2024/01/29 00:03:52;;;;;;;;;48.75;40.00;;;;;;;;5037333;28;45687;-84
2024/01/29 00:06:17;;;;;;;;;53.25;43.00;;;;;;;;5049363;28;45706;-85
2024/01/29 00:08:43;;;;;;;;;57.00;45.50;;;;;;;;5024403;28;45720;-81
2024/01/29 00:11:08;;;;;;;;;59.50;45.75;;;;;;;;5045044;28;45346;-82
2024/01/29 00:13:33;;;;;;;;;52.25;41.25;;;;;;;;5055861;28;45736;-82
2024/01/29 00:15:59;;;;;;;;;50.00;42.25;;;;;;;;5059703;28;45507;-79
2024/01/29 00:18:24;;;;;;;;;54.25;43.25;;;;;;;;5059535;28;45616;-80
2024/01/29 00:20:49;;;;;;;;;52.00;41.75;;;;;;;;5044373;28;45729;-80
2024/01/29 00:23:16;;;;;;;;;56.00;43.50;;;;;;;;5060084;28;45412;-79
2024/01/29 00:25:41;;;;;;;;;60.75;45.50;;;;;;;;5062523;28;46486;-79
2024/01/29 00:28:07;;;;;;;;;64.25;49.25;;;;;;;;5041024;28;45460;-80
2024/01/29 00:30:32;;;;;;;;;56.75;44.50;;;;;;;;5059103;28;45848;-79
2024/01/29 00:32:57;;;;;;;;;56.00;45.50;;;;;;;;5067438;28;45746;-81
2024/01/29 00:35:23;;;;;;;;;57.75;47.75;;;;;;;;5049320;28;47231;-81
2024/01/29 00:37:49;;;;;;;;;66.50;49.75;;;;;;;;5057863;28;45301;-80
2024/01/29 00:40:14;;;;;;;;;60.50;47.25;;;;;;;;5042469;28;45821;-81
2024/01/29 00:42:39;;;;;;;;;57.75;47.50;;;;;;;;5040221;28;47118;-80
2024/01/29 00:45:05;;;;;;;;;63.50;49.00;;;;;;;;5060396;28;45219;-80
2024/01/29 00:47:30;;;;;;;;;61.50;46.50;;;;;;;;5069498;28;45466;-80
2024/01/29 00:49:56;;;;;;;;;72.50;57.25;;;;;;;;5060703;28;45585;-80
2024/01/29 00:52:21;;;;;;;;;63.75;49.00;;;;;;;;5040789;28;45470;-80
2024/01/29 00:54:46;;;;;;;;;56.00;44.75;;;;;;;;5041900;28;47373;-79
2024/01/29 00:57:15;;;;;;;;;46.75;38.75;;;;;;;;5048571;28;45430;-80
2024/01/29 00:59:40;;;;;;;;;49.75;40.25;;;;;;;;5040208;28;45833;-79
2024/01/29 01:02:06;;;;;;;;;42.25;36.00;;;;;;;;5058182;28;45461;-81
2024/01/29 01:04:31;;;;;;;;;45.25;38.00;;;;;;;;5059126;28;45762;-83
2024/01/29 01:06:56;;;;;;;;;42.75;37.00;;;;;;;;5045990;28;45926;-83
2024/01/29 01:09:21;;;;;;;;;54.25;41.75;;;;;;;;5058418;28;45751;-82
2024/01/29 01:11:47;;;;;;;;;58.00;43.75;;;;;;;;5040368;28;45924;-83
2024/01/29 01:14:12;;;;;;;;;59.75;47.50;;;;;;;;5061634;28;45779;-82
2024/01/29 01:16:38;;;;;;;;;53.50;43.75;;;;;;;;5058577;28;45607;-82
2024/01/29 01:19:03;;;;;;;;;52.00;41.00;;;;;;;;5056648;28;45484;-82
2024/01/29 01:21:29;;;;;;;;;53.50;41.25;;;;;;;;5033848;28;46937;-81
2024/01/29 01:23:54;;;;;;;;;65.00;50.75;;;;;;;;5054809;28;45649;-82
2024/01/29 01:26:19;;;;;;;;;57.50;45.75;;;;;;;;5038248;28;45682;-80
2024/01/29 01:28:44;;;;;;;;;64.50;50.00;;;;;;;;5056403;28;45746;-82
2024/01/29 01:31:10;;;;;;;;;66.50;52.50;;;;;;;;5055651;28;45661;-84
2024/01/29 01:33:35;;;;;;;;;68.75;53.25;;;;;;;;5049694;28;47342;-81
2024/01/29 01:36:00;;;;;;;;;62.25;51.00;;;;;;;;5050963;28;45807;-83
2024/01/29 01:38:26;;;;;;;;;66.75;51.00;;;;;;;;5053725;28;45917;-83
2024/01/29 01:40:51;;;;;;;;;69.00;52.00;;;;;;;;5044228;28;45651;-84
2024/01/29 01:43:17;;;;;;;;;68.25;52.00;;;;;;;;5028466;28;46925;-83
2024/01/29 01:45:42;;;;;;;;;63.75;50.75;;;;;;;;5054085;28;45403;-83
2024/01/29 01:48:07;;;;;;;;;69.25;53.25;;;;;;;;5072096;28;45430;-82
2024/01/29 01:50:33;;;;;;;;;68.50;52.50;;;;;;;;5050923;28;45565;-83
2024/01/29 01:52:59;;;;;;;;;74.00;57.50;;;;;;;;5042251;28;47967;-83
2024/01/29 01:55:24;;;;;;;;;72.00;54.50;;;;;;;;5060599;28;45677;-83
2024/01/29 01:57:50;;;;;;;;;66.75;53.00;;;;;;;;5041204;28;45413;-83
2024/01/29 02:00:16;;;;;;;;;68.25;53.75;;;;;;;;5040387;28;46075;-83
2024/01/29 02:02:42;;;;;;;;;59.00;45.00;;;;;;;;5052648;28;45466;-84
2024/01/29 02:05:07;;;;;;;;;55.75;47.00;;;;;;;;5059998;28;45640;-82
2024/01/29 02:07:32;;;;;;;;;58.50;46.25;;;;;;;;5056762;28;45676;-82
2024/01/29 02:09:58;;;;;;;;;62.50;50.00;;;;;;;;5049244;28;45766;-82
2024/01/29 02:12:23;;;;;;;;;59.25;48.25;;;;;;;;5059946;28;45433;-84
2024/01/29 02:14:51;;;;;;;;;58.75;45.50;;;;;;;;5049004;28;45837;-84
2024/01/29 02:17:17;;;;;;;;;57.25;46.25;;;;;;;;5056009;28;46018;-83
2024/01/29 02:19:42;;;;;;;;;61.25;49.00;;;;;;;;5044379;28;45291;-85
2024/01/29 02:22:07;;;;;;;;;66.25;51.25;;;;;;;;5055544;28;47221;-83
2024/01/29 02:24:33;;;;;;;;;77.00;57.25;;;;;;;;5036751;28;45924;-84
2024/01/29 02:26:58;;;;;;;;;67.00;51.50;;;;;;;;5036762;28;45734;-83
2024/01/29 02:29:23;;;;;;;;;75.25;58.50;;;;;;;;5037184;28;45712;-82
2024/01/29 02:31:48;;;;;;;;;69.50;51.75;;;;;;;;5040572;28;46913;-83
2024/01/29 02:34:14;;;;;;;;;54.75;42.75;;;;;;;;5038270;28;45783;-83
2024/01/29 02:36:39;;;;;;;;;69.25;51.75;;;;;;;;5054134;28;45686;-83
2024/01/29 02:39:04;;;;;;;;;63.50;49.50;;;;;;;;5039615;28;46917;-82
2024/01/29 02:41:30;;;;;;;;;67.50;52.00;;;;;;;;5040221;28;47017;-83
2024/01/29 02:43:55;;;;;;;;;74.75;57.00;;;;;;;;5034803;28;45403;-84
2024/01/29 02:46:20;;;;;;;;;65.50;51.75;;;;;;;;5032662;28;45330;-83
2024/01/29 02:48:46;;;;;;;;;61.75;49.25;;;;;;;;5060497;28;45347;-83
2024/01/29 02:51:11;;;;;;;;;54.00;45.25;;;;;;;;5056750;28;45524;-83
2024/01/29 02:53:36;;;;;;;;;59.75;48.00;;;;;;;;5045054;28;45403;-81
2024/01/29 02:56:02;;;;;;;;;59.00;47.00;;;;;;;;5049822;28;45379;-79
2024/01/29 02:58:27;;;;;;;;;54.75;44.75;;;;;;;;5044566;28;46139;-83
2024/01/29 03:00:53;;;;;;;;;55.75;44.25;;;;;;;;5056002;28;45474;-80
2024/01/29 03:03:18;;;;;;;;;51.50;41.25;;;;;;;;5046637;28;45399;-81
2024/01/29 03:05:43;;;;;;;;;55.25;41.50;;;;;;;;5043480;28;45902;-80
2024/01/29 03:08:08;;;;;;;;;53.00;41.75;;;;;;;;5054583;28;45860;-79
2024/01/29 03:10:34;;;;;;;;;53.50;43.50;;;;;;;;5061410;28;45879;-79
2024/01/29 03:12:59;;;;;;;;;57.00;45.75;;;;;;;;5056451;28;45679;-78
2024/01/29 03:15:24;;;;;;;;;59.00;45.00;;;;;;;;5044047;28;45421;-78
2024/01/29 03:17:50;;;;;;;;;59.50;47.50;;;;;;;;5024429;28;47183;-79
2024/01/29 03:20:15;;;;;;;;;60.75;47.25;;;;;;;;5059892;28;45802;-80
2024/01/29 03:22:40;;;;;;;;;55.75;45.75;;;;;;;;5051125;28;45397;-80
2024/01/29 03:25:06;;;;;;;;;59.00;46.00;;;;;;;;5041246;28;45569;-79
2024/01/29 03:27:31;;;;;;;;;67.75;47.50;;;;;;;;5041989;28;46133;-79
2024/01/29 03:29:56;;;;;;;;;58.25;45.75;;;;;;;;5054350;28;46851;-78
2024/01/29 03:32:21;;;;;;;;;56.25;44.50;;;;;;;;5046595;28;45870;-78
2024/01/29 03:34:47;;;;;;;;;60.25;46.00;;;;;;;;5039142;28;45954;-78
2024/01/29 03:37:12;;;;;;;;;53.25;38.00;;;;;;;;5044147;28;46043;-79
2024/01/29 03:39:37;;;;;;;;;34.50;33.25;;;;;;;;5054833;28;45686;-78
2024/01/29 03:42:03;;;;;;;;;51.50;39.50;;;;;;;;5045475;28;45413;-78
2024/01/29 03:44:28;;;;;;;;;47.00;39.50;;;;;;;;5029983;28;45758;-77
2024/01/29 03:46:53;;;;;;;;;46.25;37.25;;;;;;;;5075336;28;46096;-79
2024/01/29 03:49:18;;;;;;;;;42.00;35.75;;;;;;;;5084503;28;45320;-79
2024/01/29 03:51:44;;;;;;;;;48.50;38.50;;;;;;;;5062928;28;45830;-79
2024/01/29 03:54:09;;;;;;;;;40.50;36.00;;;;;;;;5061147;28;45788;-79
2024/01/29 03:56:34;;;;;;;;;49.50;39.00;;;;;;;;5034517;28;47174;-77
2024/01/29 03:58:59;;;;;;;;;43.75;36.00;;;;;;;;5070823;28;45720;-79
2024/01/29 04:01:26;;;;;;;;;41.50;35.50;;;;;;;;5061402;28;45585;-80
2024/01/29 04:03:51;;;;;;;;;36.00;33.75;;;;;;;;5037134;28;45479;-79
2024/01/29 04:06:17;;;;;;;;;44.50;36.25;;;;;;;;5048927;28;45901;-80
2024/01/29 04:08:42;;;;;;;;;41.50;35.25;;;;;;;;5064194;28;45572;-79
2024/01/29 04:11:07;;;;;;;;;37.00;34.50;;;;;;;;5037663;28;46173;-79
2024/01/29 04:13:34;;;;;;;;;44.25;35.50;;;;;;;;5036584;28;45841;-79
2024/01/29 04:15:59;;;;;;;;;45.75;35.75;;;;;;;;5054160;28;45649;-79
2024/01/29 04:18:24;;;;;;;;;31.25;25.75;;;;;;;;5041826;28;45602;-79
2024/01/29 04:20:49;;;;;;;;;37.50;34.50;;;;;;;;5044452;28;45424;-79
2024/01/29 04:23:15;;;;;;;;;41.00;34.50;;;;;;;;5070197;28;45435;-79
2024/01/29 04:25:40;;;;;;;;;45.75;37.50;;;;;;;;5049744;28;45631;-79
2024/01/29 04:28:05;;;;;;;;;34.50;33.25;;;;;;;;5054696;28;45613;-80
2024/01/29 04:30:30;;;;;;;;;30.25;25.75;;;;;;;;5054651;28;45859;-79
2024/01/29 04:32:55;;;;;;;;;30.00;29.75;;;;;;;;5064096;28;45417;-80
2024/01/29 04:35:21;;;;;;;;;34.25;31.50;;;;;;;;5055635;28;45538;-81
2024/01/29 04:37:46;;;;;;;;;36.25;33.25;;;;;;;;5037947;28;47073;-80
2024/01/29 04:40:11;;;;;;;;;30.75;28.00;;;;;;;;5055451;28;45382;-81
2024/01/29 04:42:37;;;;;;;;;31.50;29.25;;;;;;;;5036931;28;45779;-80
2024/01/29 04:45:03;;;;;;;;;31.50;29.75;;;;;;;;5048287;28;45711;-81
2024/01/29 04:47:28;;;;;;;;;32.00;30.75;;;;;;;;5048416;28;46039;-83
2024/01/29 04:49:53;;;;;;;;;29.75;28.75;;;;;;;;5060430;28;45417;-82
2024/01/29 04:52:18;;;;;;;;;31.25;26.50;;;;;;;;5054665;28;45468;-80
2024/01/29 04:54:44;;;;;;;;;33.50;30.50;;;;;;;;5038653;28;46214;-82
2024/01/29 04:57:09;;;;;;;;;30.75;27.25;;;;;;;;5050872;28;47422;-81
2024/01/29 04:59:34;;;;;;;;;37.75;31.00;;;;;;;;5037793;28;46195;-81
2024/01/29 05:02:00;;;;;;;;;35.50;33.50;;;;;;;;5054727;28;45346;-81
2024/01/29 05:04:26;;;;;;;;;30.75;27.75;;;;;;;;5033648;28;47148;-79
2024/01/29 05:06:51;;;;;;;;;33.50;27.75;;;;;;;;5054355;28;45324;-79
2024/01/29 05:09:17;;;;;;;;;26.00;26.00;;;;;;;;5059463;28;45445;-79
2024/01/29 05:11:42;;;;;;;;;30.00;26.25;;;;;;;;5065908;28;45857;-80
2024/01/29 05:14:08;;;;;;;;;23.75;21.50;;;;;;;;5053786;28;46065;-80
2024/01/29 05:16:34;;;;;;;;;27.75;26.50;;;;;;;;5051755;28;45507;-79
2024/01/29 05:18:59;;;;;;;;;28.00;24.67;;;;;;;;5049035;28;45835;-79
2024/01/29 05:21:24;;;;;;;;;27.00;25.33;;;;;;;;5048654;28;46022;-80
2024/01/29 05:23:50;;;;;;;;;31.33;27.33;;;;;;;;5050231;28;45419;-81
2024/01/29 05:26:15;;;;;;;;;30.00;29.00;;;;;;;;5048022;28;47218;-80
2024/01/29 05:28:40;;;;;;;;;30.00;26.67;;;;;;;;5030742;28;45607;-79
2024/01/29 05:31:06;;;;;;;;;29.00;25.00;;;;;;;;5052862;28;45629;-79
2024/01/29 05:33:31;;;;;;;;;30.00;25.00;;;;;;;;5048441;28;46053;-78
2024/01/29 05:35:56;;;;;;;;;32.67;28.00;;;;;;;;5037617;28;48083;-75
2024/01/29 05:38:21;;;;;;;;;31.67;26.00;;;;;;;;5037144;28;45676;-73
2024/01/29 05:40:47;;;;;;;;;36.00;30.00;;;;;;;;5046879;28;45707;-74
2024/01/29 05:43:12;;;;;;;;;32.00;27.33;;;;;;;;5038066;28;47041;-73
2024/01/29 05:45:37;;;;;;;;;29.00;27.33;;;;;;;;5056109;28;46209;-73
2024/01/29 05:48:04;;;;;;;;;28.33;27.00;;;;;;;;5054446;28;45422;-75
2024/01/29 05:50:29;;;;;;;;;30.00;27.33;;;;;;;;5034905;28;45782;-74
2024/01/29 05:52:54;;;;;;;;;22.33;20.67;;;;;;;;5048632;28;45390;-76
2024/01/29 05:55:20;;;;;;;;;31.67;27.00;;;;;;;;5049260;28;46083;-73
2024/01/29 05:57:45;;;;;;;;;28.00;24.00;;;;;;;;5038357;28;45512;-75
2024/01/29 06:00:11;;;;;;;;;24.67;24.67;;;;;;;;5029311;28;45743;-73
2024/01/29 06:02:42;;;;;;;;;29.33;28.00;;;;;;;;5043776;28;45999;-72
2024/01/29 06:05:08;;;;;;;;;29.00;24.33;;;;;;;;5041849;28;47239;-83
2024/01/29 06:07:33;;;;;;;;;23.33;23.00;;;;;;;;5034265;28;45818;-79
2024/01/29 06:09:58;;;;;;;;;25.00;25.00;;;;;;;;5040507;28;45393;-82
2024/01/29 06:12:24;;;;;;;;;27.33;20.33;;;;;;;;5045545;28;46010;-82
2024/01/29 06:14:49;;;;;;;;;29.67;23.67;;;;;;;;5035036;28;46228;-83
2024/01/29 06:17:14;;;;;;;;;30.00;27.00;;;;;;;;5063825;28;45656;-84
2024/01/29 06:19:40;;;;;;;;;25.00;23.00;;;;;;;;5058038;28;45364;-75
2024/01/29 06:22:05;;;;;;;;;21.67;19.33;;;;;;;;5050679;28;45806;-73
2024/01/29 06:24:31;;;;;;;;;25.33;24.67;;;;;;;;5059417;28;47588;-74
2024/01/29 06:26:56;;;;;;;;;26.33;25.00;;;;;;;;5062865;28;45666;-76
2024/01/29 06:29:23;;;;;;;;;23.67;20.33;;;;;;;;5073492;28;45203;-84
2024/01/29 06:31:49;;;;;;;;;27.00;23.00;;;;;;;;5069490;28;45412;-83
2024/01/29 06:34:15;;;;;;;;;26.67;24.67;;;;;;;;5066379;28;45570;-81
2024/01/29 06:36:40;;;;;;;;;24.00;23.33;;;;;;;;5059212;28;45450;-72
2024/01/29 06:39:09;;;;;;;;;29.00;26.67;;;;;;;;5060934;28;45584;-74
2024/01/29 06:41:34;;;;;;;;;27.33;25.00;;;;;;;;5049531;28;45825;-77
2024/01/29 06:43:59;;;;;;;;;29.67;26.33;;;;;;;;5052282;28;46842;-82
2024/01/29 06:46:26;;;;;;;;;29.00;24.00;;;;;;;;5030090;28;46443;-76
2024/01/29 06:48:51;;;;;;;;;23.33;22.00;;;;;;;;5029622;28;45806;-74
2024/01/29 06:51:17;;;;;;;;;32.33;27.00;;;;;;;;5020083;28;46120;-76
2024/01/29 06:53:42;;;;;;;;;31.33;26.67;;;;;;;;5027111;28;45954;-75
2024/01/29 06:56:07;;;;;;;;;26.67;22.67;;;;;;;;5062672;28;46103;-75
2024/01/29 06:58:36;;;;;;;;;24.00;20.33;;;;;;;;5063733;28;45611;-76
2024/01/29 07:01:01;;;;;;;;;22.67;22.67;;;;;;;;5057039;28;45568;-76
2024/01/29 07:03:27;;;;;;;;;27.00;25.67;;;;;;;;5028120;28;46812;-74
2024/01/29 07:05:53;;;;;;;;;32.00;24.67;;;;;;;;5053587;28;45706;-76
2024/01/29 07:08:18;;;;;;;;;33.00;27.33;;;;;;;;5052064;28;45740;-76
2024/01/29 07:10:44;;;;;;;;;23.00;20.67;;;;;;;;5058232;28;45763;-76
2024/01/29 07:13:09;;;;;;;;;24.67;22.33;;;;;;;;5048855;28;47245;-74
2024/01/29 07:15:35;;;;;;;;;23.67;22.00;;;;;;;;5043238;28;45338;-76
2024/01/29 07:18:00;;;;;;;;;29.33;23.00;;;;;;;;5053121;28;45543;-74
2024/01/29 07:20:29;;;;;;;;;25.33;22.33;;;;;;;;5044529;28;45735;-76
2024/01/29 07:22:55;;;;;;;;;21.67;18.67;;;;;;;;5049336;28;45910;-77
2024/01/29 07:25:21;;;;;;;;;24.67;22.33;;;;;;;;5027976;28;46160;-77
2024/01/29 07:27:46;;;;;;;;;23.67;22.67;;;;;;;;5036547;28;45854;-77
2024/01/29 07:30:12;;;;;;;;;28.33;23.67;;;;;;;;5052568;28;45863;-76
2024/01/29 07:32:37;;;;;;;;;23.00;23.00;;;;;;;;5052456;28;46212;-76
2024/01/29 07:35:03;;;;;;;;;26.67;24.00;;;;;;;;5049855;28;45514;-78
2024/01/29 07:37:29;;;;;;;;;20.33;20.33;;;;;;;;5047085;28;45495;-78
2024/01/29 07:39:54;;;;;;;;;27.67;22.00;;;;;;;;5055925;28;45531;-76
2024/01/29 07:42:20;;;;;;;;;22.67;21.00;;;;;;;;5061091;28;45816;-76
2024/01/29 07:44:53;;;;;;;;;26.00;22.67;;;;;;;;5066235;28;45398;-76
2024/01/29 07:47:18;;;;;;;;;24.00;21.67;;;;;;;;5053830;28;45670;-75
2024/01/29 07:49:43;;;;;;;;;28.00;22.00;;;;;;;;5065778;28;45643;-75
2024/01/29 07:52:15;;;;;;;;;27.67;26.00;;;;;;;;5053699;28;46483;-75
2024/01/29 07:54:40;;;;;;;;;27.00;24.00;;;;;;;;5048697;28;45580;-75
2024/01/29 07:57:05;;;;;;;;;22.33;21.67;;;;;;;;5034072;28;45757;-75
2024/01/29 07:59:30;;;;;;;;;27.33;24.00;;;;;;;;5041679;28;45679;-76
2024/01/29 08:01:55;;;;;;;;;28.67;25.33;;;;;;;;5047825;28;46362;-76
2024/01/29 08:04:21;;;;;;;;;30.33;27.67;;;;;;;;5059039;28;45592;-75
2024/01/29 08:06:46;;;;;;;;;21.00;18.33;;;;;;;;5057297;28;45881;-76
2024/01/29 08:09:12;;;;;;;;;28.00;24.00;;;;;;;;5068961;28;45772;-77
2024/01/29 08:11:37;;;;;;;;;28.33;25.33;;;;;;;;5046196;28;47059;-76
2024/01/29 08:14:02;;;;;;;;;28.33;27.33;;;;;;;;5033742;28;45916;-76
2024/01/29 08:16:27;;;;;;;;;30.00;24.67;;;;;;;;5034142;28;45826;-78
2024/01/29 08:18:53;;;;;;;;;28.33;24.00;;;;;;;;5053429;28;45462;-77
2024/01/29 08:21:18;;;;;;;;;23.00;22.67;;;;;;;;5037295;28;47097;-76
2024/01/29 08:23:43;;;;;;;;;27.33;23.33;;;;;;;;5032085;28;45673;-77
2024/01/29 08:26:09;;;;;;;;;23.67;22.33;;;;;;;;5023865;28;45365;-75
2024/01/29 08:28:34;;;;;;;;;23.67;19.33;;;;;;;;5069211;28;45632;-73
2024/01/29 08:31:00;;;;;;;;;22.67;20.67;;;;;;;;5070917;28;45473;-74
2024/01/29 08:33:31;;;;;;;;;22.67;21.00;;;;;;;;5056120;28;45466;-75
2024/01/29 08:35:56;;;;;;;;;27.00;21.00;;;;;;;;5039257;28;45633;-75
2024/01/29 08:38:22;;;;;;;;;20.67;20.67;;;;;;;;5063871;28;45625;-80
2024/01/29 08:40:49;;;;;;;;;21.33;19.00;;;;;;;;5051600;28;45378;-81
2024/01/29 08:43:14;;;;;;;;;19.00;16.00;;;;;;;;5044134;28;45411;-82
2024/01/29 08:45:39;;;;;;;;;21.00;18.33;;;;;;;;5042283;28;44917;-82
2024/01/29 08:48:05;;;;;;;;;22.00;20.00;;;;;;;;5045851;28;45607;-83
2024/01/29 08:50:30;;;;;;;;;22.33;20.33;;;;;;;;5055324;28;45817;-83
2024/01/29 08:52:56;;;;;;;;;19.67;18.33;;;;;;;;5034572;28;45471;-83
2024/01/29 08:55:25;;;;;;;;;21.00;17.67;;;;;;;;5051502;28;45439;-85
2024/01/29 08:57:50;;;;;;;;;24.33;17.67;;;;;;;;5059236;28;45766;-84
2024/01/29 09:00:16;;;;;;;;;21.67;18.67;;;;;;;;5058773;28;46074;-82
2024/01/29 09:02:42;;;;;;;;;23.00;20.67;;;;;;;;5056726;28;45501;-80
2024/01/29 09:05:08;;;;;;;;;22.00;17.33;;;;;;;;5037100;28;45884;-78
2024/01/29 09:07:33;;;;;;;;;19.33;18.67;;;;;;;;5053694;28;45483;-73
2024/01/29 09:09:58;;;;;;;;;21.00;20.00;;;;;;;;5046754;28;46065;-73
2024/01/29 09:12:24;;;;;;;;;20.33;17.33;;;;;;;;5059580;28;45420;-73
2024/01/29 09:14:49;;;;;;;;;19.33;18.33;;;;;;;;5031855;28;45738;-72
2024/01/29 09:17:14;;;;;;;;;24.33;19.00;;;;;;;;5057611;28;45595;-73
2024/01/29 09:19:39;;;;;;;;;21.33;18.33;;;;;;;;5052698;28;46587;-73
2024/01/29 09:22:05;;;;;;;;;19.00;17.67;;;;;;;;5056411;28;46377;-73
2024/01/29 09:24:30;;;;;;;;;21.67;20.67;;;;;;;;5063491;28;45468;-72
2024/01/29 09:26:56;;;;;;;;;27.33;21.67;;;;;;;;5055288;28;45462;-73
2024/01/29 09:29:21;;;;;;;;;20.33;18.00;;;;;;;;5071834;28;45622;-73
2024/01/29 09:31:47;;;;;;;;;20.67;20.67;;;;;;;;5057615;28;45642;-72
2024/01/29 09:34:12;;;;;;;;;23.00;19.67;;;;;;;;5065190;28;45732;-74
2024/01/29 09:36:38;;;;;;;;;24.00;19.33;;;;;;;;5033409;28;45765;-72
2024/01/29 09:39:03;;;;;;;;;23.67;19.67;;;;;;;;5035908;28;47068;-73
2024/01/29 09:41:33;;;;;;;;;13.33;13.00;;;;;;;;5049058;28;45822;-73
2024/01/29 09:43:58;;;;;;;;;19.67;17.33;;;;;;;;5054940;28;45777;-73
2024/01/29 09:46:25;;;;;;;;;15.67;13.67;;;;;;;;5063888;28;45705;-72
2024/01/29 09:48:50;;;;;;;;;22.00;21.33;;;;;;;;5069554;28;45877;-73
2024/01/29 09:51:16;;;;;;;;;21.00;19.67;;;;;;;;5051488;28;45815;-73
2024/01/29 09:53:42;;;;;;;;;17.67;16.67;;;;;;;;5051053;28;45659;-73
2024/01/29 09:56:07;;;;;;;;;19.67;17.00;;;;;;;;5035999;28;47121;-73
2024/01/29 09:58:33;;;;;;;;;17.00;17.00;;;;;;;;5050526;28;45457;-73
2024/01/29 10:00:58;;;;;;;;;18.67;18.67;;;;;;;;5051766;28;45907;-73
2024/01/29 10:03:32;;;;;;;;;23.00;21.67;;;;;;;;5035899;28;45739;-76
2024/01/29 10:05:57;;;;;;;;;21.67;19.00;;;;;;;;5042250;28;45688;-69
2024/01/29 10:08:27;;;;;;;;;8.33;7.00;;;;;;;;5055549;28;45995;-71
2024/01/29 10:10:56;;;;;;;;;21.00;20.00;;;;;;;;5054481;28;45835;-71
2024/01/29 10:13:21;;;;;;;;;24.00;17.67;;;;;;;;5047031;28;45677;-70
2024/01/29 10:15:47;;;;;;;;;21.00;18.33;;;;;;;;5014148;28;46241;-72
2024/01/29 10:18:13;;;;;;;;;23.33;17.67;;;;;;;;5031182;28;45827;-71
2024/01/29 10:20:39;;;;;;;;;20.00;16.33;;;;;;;;5042560;28;46799;-71
2024/01/29 10:23:04;;;;;;;;;21.67;20.67;;;;;;;;5047605;28;45888;-70
2024/01/29 10:25:31;;;;;;;;;17.33;13.33;;;;;;;;5044034;28;45814;-70
2024/01/29 10:28:12;;;;;;;;;22.67;18.67;;;;;;;;5055442;28;45923;-71
2024/01/29 10:30:39;;;;;;;;;17.33;13.00;;;;;;;;5055910;28;45461;-70
2024/01/29 10:33:04;;;;;;;;;18.00;16.33;;;;;;;;5031534;28;45843;-70
2024/01/29 10:35:29;;;;;;;;;19.67;17.33;;;;;;;;5018176;28;47075;-71
2024/01/29 10:38:00;;;;;;;;;16.33;15.67;;;;;;;;5063892;28;45480;-71
2024/01/29 10:40:27;;;;;;;;;16.67;16.00;;;;;;;;5054001;28;45537;-70
2024/01/29 10:42:53;;;;;;;;;15.33;13.33;;;;;;;;5036147;28;45684;-82
2024/01/29 10:45:19;;;;;;;;;16.33;15.00;;;;;;;;5027679;28;46510;-76
2024/01/29 10:47:49;;;;;;;;;14.67;12.67;;;;;;;;5054019;28;45771;-75
2024/01/29 10:50:18;;;;;;;;;17.67;13.67;;;;;;;;5055220;28;45501;-82
2024/01/29 10:52:44;;;;;;;;;12.33;9.33;;;;;;;;5035268;28;45905;-79
2024/01/29 10:55:10;;;;;;;;;16.67;12.33;;;;;;;;5053618;28;45578;-79
2024/01/29 10:57:37;;;;;;;;;15.33;12.00;;;;;;;;5040403;28;46900;-80
2024/01/29 11:00:03;;;;;;;;;11.00;10.00;;;;;;;;5035886;28;45447;-82
2024/01/29 11:02:29;;;;;;;;;14.67;14.33;;;;;;;;5051947;28;45355;-82
2024/01/29 11:04:55;;;;;;;;;17.00;14.33;;;;;;;;5057465;28;45470;-82
2024/01/29 11:07:22;;;;;;;;;17.33;11.67;;;;;;;;5038608;28;46026;-82
2024/01/29 11:10:07;;;;;;;;;12.33;11.67;;;;;;;;5047075;28;45332;-82
2024/01/29 11:12:33;;;;;;;;;13.00;13.00;;;;;;;;5030654;28;45660;-82
2024/01/29 11:14:59;;;;;;;;;14.00;12.00;;;;;;;;5049729;28;45802;-80
2024/01/29 11:17:25;;;;;;;;;14.00;12.33;;;;;;;;5043379;28;46192;-83
2024/01/29 11:19:50;;;;;;;;;22.33;16.00;;;;;;;;5049563;28;45463;-85
2024/01/29 11:22:18;;;;;;;;;18.33;13.33;;;;;;;;5067892;28;45375;-88
2024/01/29 11:24:44;;;;;;;;;14.67;13.67;;;;;;;;5049484;28;45754;-83
2024/01/29 11:27:10;;;;;;;;;19.33;17.33;;;;;;;;5025035;28;47026;-83
2024/01/29 11:29:36;;;;;;;;;14.00;12.00;;;;;;;;5053706;28;45667;-82
2024/01/29 11:32:02;;;;;;;;;14.00;13.00;;;;;;;;5034521;28;45435;-82
2024/01/29 11:34:28;;;;;;;;;18.67;15.00;;;;;;;;5049996;28;45917;-81
2024/01/29 11:36:53;;;;;;;;;14.00;13.00;;;;;;;;5046736;28;47394;-82
2024/01/29 11:39:22;;;;;;;;;21.00;14.67;;;;;;;;5043248;28;45459;-82
2024/01/29 11:41:51;;;;;;;;;11.00;11.00;;;;;;;;5057512;28;45415;-80
2024/01/29 11:44:21;;;;;;;;;11.33;7.00;;;;;;;;5035392;28;46045;-81
2024/01/29 11:46:47;;;;;;;;;11.67;10.00;;;;;;;;5044396;28;45939;-80
2024/01/29 11:49:12;;;;;;;;;14.00;10.33;;;;;;;;5052555;28;45901;-80
2024/01/29 11:51:37;;;;;;;;;12.00;10.00;;;;;;;;5059918;28;45849;-80
2024/01/29 11:54:06;;;;;;;;;7.67;6.00;;;;;;;;5028860;28;45934;-80
2024/01/29 11:56:31;;;;;;;;;11.00;6.00;;;;;;;;5053677;28;45530;-82
2024/01/29 11:59:03;;;;;;;;;10.00;7.00;;;;;;;;5035909;28;45337;-82
2024/01/29 12:01:29;;;;;;;;;7.00;7.00;;;;;;;;5051713;28;45514;-82
2024/01/29 12:03:54;;;;;;;;;12.33;8.33;;;;;;;;5054311;28;45546;-82
2024/01/29 12:06:20;;;;;;;;;9.00;8.33;;;;;;;;5039979;28;48039;-81
2024/01/29 12:08:47;;;;;;;;;8.33;8.33;;;;;;;;5060729;28;45636;-82
2024/01/29 12:11:13;;;;;;;;;8.33;7.00;;;;;;;;5055578;28;45440;-81
2024/01/29 12:13:38;;;;;;;;;10.33;9.67;;;;;;;;5068244;28;45237;-81
2024/01/29 12:16:04;;;;;;;;;11.00;8.00;;;;;;;;5046724;28;47211;-80
2024/01/29 12:18:30;;;;;;;;;9.67;9.00;;;;;;;;5050500;28;45479;-81
2024/01/29 12:20:56;;;;;;;;;11.67;9.33;;;;;;;;5058148;28;45359;-81
2024/01/29 12:23:22;;;;;;;;;8.67;6.33;;;;;;;;5069164;28;44848;-83
2024/01/29 12:25:55;;;;;;;;;9.33;6.33;;;;;;;;5072985;28;45381;-81
2024/01/29 12:28:21;;;;;;;;;10.67;9.00;;;;;;;;5045462;28;45519;-84
2024/01/29 12:30:56;;;;;;;;;9.33;8.67;;;;;;;;5069059;28;45588;-79
2024/01/29 12:33:28;;;;;;;;;12.00;8.67;;;;;;;;5042863;28;46188;-83
2024/01/29 12:35:54;;;;;;;;;10.33;9.33;;;;;;;;5028346;28;47546;-82
2024/01/29 12:38:22;;;;;;;;;9.00;7.33;;;;;;;;5044779;28;45665;-81
2024/01/29 12:40:47;;;;;;;;;9.33;7.00;;;;;;;;5063819;28;45431;-81
2024/01/29 12:43:13;;;;;;;;;6.00;4.67;;;;;;;;5059843;28;45534;-82
2024/01/29 12:45:39;;;;;;;;;12.00;10.00;;;;;;;;5047271;28;47325;-81
2024/01/29 12:48:06;;;;;;;;;11.00;8.67;;;;;;;;5056260;28;45821;-81
2024/01/29 12:50:31;;;;;;;;;7.00;7.00;;;;;;;;5056702;28;45366;-82
2024/01/29 12:52:57;;;;;;;;;6.33;6.33;;;;;;;;5055031;28;45672;-81
2024/01/29 12:55:23;;;;;;;;;9.67;6.00;;;;;;;;5057919;28;45755;-80
2024/01/29 12:57:48;;;;;;;;;7.00;6.00;;;;;;;;5060878;28;45778;-81
2024/01/29 13:00:14;;;;;;;;;11.00;8.67;;;;;;;;5052739;28;45791;-81
2024/01/29 13:02:39;;;;;;;;;8.00;5.00;;;;;;;;5060878;28;45692;-80
2024/01/29 13:05:04;;;;;;;;;10.67;9.00;;;;;;;;5065187;28;46472;-80
2024/01/29 13:07:29;;;;;;;;;3.67;3.33;;;;;;;;5057012;28;45752;-81
2024/01/29 13:09:57;;;;;;;;;6.67;3.33;;;;;;;;5035345;28;46493;-81
2024/01/29 13:12:22;;;;;;;;;6.00;4.67;;;;;;;;5031182;28;45975;-80
2024/01/29 13:14:47;;;;;;;;;10.33;8.67;;;;;;;;5046797;28;46769;-82
2024/01/29 13:17:12;;;;;;;;;10.33;6.67;;;;;;;;5036527;28;45777;-81
2024/01/29 13:19:38;;;;;;;;;8.33;5.00;;;;;;;;5049658;28;45442;-81
2024/01/29 13:22:03;;;;;;;;;8.00;8.00;;;;;;;;5043247;28;45465;-82
2024/01/29 13:24:29;;;;;;;;;7.00;5.00;;;;;;;;5038930;28;47506;-81
2024/01/29 13:26:55;;;;;;;;;5.67;4.67;;;;;;;;5041797;28;45956;-81
2024/01/29 13:29:20;;;;;;;;;8.00;6.00;;;;;;;;5052135;28;45655;-81
2024/01/29 13:31:46;;;;;;;;;7.33;5.33;;;;;;;;5057555;28;45486;-82
2024/01/29 13:34:11;;;;;;;;;7.33;6.33;;;;;;;;5058321;28;46033;-81
2024/01/29 13:36:37;;;;;;;;;8.00;8.00;;;;;;;;5040847;28;45768;-81
2024/01/29 13:39:05;;;;;;;;;7.00;5.00;;;;;;;;5060256;28;45587;-80
2024/01/29 13:41:31;;;;;;;;;12.00;7.67;;;;;;;;5060232;28;45404;-81
2024/01/29 13:43:56;;;;;;;;;8.00;8.00;;;;;;;;5042763;28;46970;-81
2024/01/29 13:46:21;;;;;;;;;7.67;7.33;;;;;;;;5047770;28;45453;-82
2024/01/29 13:48:47;;;;;;;;;6.00;6.00;;;;;;;;5024235;28;45596;-83
2024/01/29 13:51:16;;;;;;;;;8.67;7.33;;;;;;;;5051686;28;45656;-81
2024/01/29 13:53:41;;;;;;;;;8.67;6.67;;;;;;;;5049219;28;48261;-79
2024/01/29 13:56:06;;;;;;;;;9.00;8.00;;;;;;;;5043093;28;45322;-81
2024/01/29 13:58:32;;;;;;;;;11.00;6.67;;;;;;;;5042292;28;45910;-81
2024/01/29 14:00:57;;;;;;;;;8.67;7.67;;;;;;;;5040240;28;46889;-82
2024/01/29 14:03:22;;;;;;;;;15.33;7.33;;;;;;;;5059336;28;45402;-82
2024/01/29 14:05:47;;;;;;;;;8.67;7.67;;;;;;;;5055560;28;45462;-81
2024/01/29 14:08:13;;;;;;;;;9.00;8.33;;;;;;;;5063306;28;45347;-81
2024/01/29 14:10:38;;;;;;;;;7.00;5.33;;;;;;;;5042235;28;45943;-81
2024/01/29 14:13:03;;;;;;;;;8.33;6.67;;;;;;;;5061949;28;46413;-81